Levelland, Texas
Current Conditions -  °F | °C
As of 4:53 PM on Saturday 20 Dec 2014 (Local Time) from KLBB Reporting Station
Scattered Clouds Scattered Clouds  
Wind Chill: 41°   Ceiling: Unl
Heat Index: 46°   Visibility: 10mi
Dew Point: 37°   Wind: 12mph
Humidity: 71%   Direction: 170°S
Pressure: 30.02"   Gusts: NA
Location:  33.59°N, 102.37°W
Report Text: KLBB 202253Z 17010KT 10SM FEW021 SCT220 SCT250 08/03 A3002 RMK AO2 SLP161 T00780028
Loading
Personal Weather Stations






























Interactive Weather Map New forecast layout! Learn more

10-Day Weather Forecast

Advertisements
Track Severe Weather on mobile